CheckWX is a tool to help pilots better visualize weather data.  It is not intended as a substitute for an official pre-flight weather briefing.

10:42:59 UTC

SCEL TAF
Comodoro Arturo Merino Benítez International Airport
Santiago, Chile
TAF SCEL 180400Z 1806/1906 16005KT CAVOK TX25/1818Z TN10/1811Z TEMPO 1809/1813 00000KT 5000 HZ NSC BECMG 1817/1819 19010KT SCT150 BKN200 BECMG 1902/1904 17004KT

Apr-18@
06:00 UTC

Apr-18 @ 06:00 UTC

Apr-18@
17:00 UTC

Apr-18 @ 17:00 UTC

TAF SCEL 180400Z 1806/1906 16005KT CAVOK TX25/1818Z TN10/1811Z
Wind
  • 160° at 5 KTS
Cloud Levels
  • No significant clouds

Apr-18@
09:00 UTC

Apr-18 @ 09:00 UTC

Apr-18@
13:00 UTC

Apr-18 @ 13:00 UTC

TEMPO 1809/1813 00000KT 5000 HZ NSC

Temporary

Temporary Changes expected for less than half the time period

Conditions
Haze
Cloud Levels
  • No significant clouds

Apr-18@
17:00 UTC

Apr-18 @ 17:00 UTC

Apr-19@
02:00 UTC

Apr-19 @ 02:00 UTC

BECMG 1817/1819 19010KT SCT150 BKN200

Becoming

Becoming Conditions expected by Thu, Apr 18, 2019 @ 19:00 UTC

Wind
  • 190° at 10 KTS
Cloud Levels
  • Scattered at 15,000' AGL
  • Broken at 20,000' AGL

Apr-19@
02:00 UTC

Apr-19 @ 02:00 UTC

Apr-19@
06:00 UTC

Apr-19 @ 06:00 UTC

BECMG 1902/1904 17004KT

Becoming

Becoming Conditions expected by Fri, Apr 19, 2019 @ 04:00 UTC

Wind
  • 170° at 4 KTS
Cloud Levels
  • Scattered at 15,000' AGL
  • Broken at 20,000' AGL